createdAt,value
2022-10-02T00:02:29.745Z,65.90
2022-10-02T00:05:03.839Z,65.86
2022-10-02T00:07:44.950Z,65.70
2022-10-02T00:10:20.727Z,65.45
2022-10-02T00:12:55.189Z,66.00
2022-10-02T00:15:30.181Z,65.74
2022-10-02T00:18:08.214Z,65.82
2022-10-02T00:20:50.396Z,65.71
2022-10-02T00:23:57.568Z,65.55
2022-10-02T00:26:26.112Z,65.62
2022-10-02T00:29:05.728Z,65.41
2022-10-02T00:31:39.946Z,65.55
2022-10-02T00:34:27.693Z,65.83
2022-10-02T00:37:17.140Z,65.51
2022-10-02T00:40:20.960Z,65.44
2022-10-02T00:43:00.390Z,65.51
2022-10-02T00:45:47.294Z,65.13
2022-10-02T00:48:24.819Z,65.30
2022-10-02T00:51:26.732Z,64.96
2022-10-02T00:54:09.731Z,65.06
2022-10-02T00:56:38.518Z,64.94
2022-10-02T00:59:29.874Z,64.63
2022-10-02T01:02:06.203Z,64.76
2022-10-02T01:04:37.555Z,64.93
2022-10-02T01:07:09.805Z,65.35
2022-10-02T01:09:39.915Z,65.35
2022-10-02T01:12:09.281Z,65.16
2022-10-02T01:14:40.777Z,65.09
2022-10-02T01:17:27.534Z,65.03
2022-10-02T01:19:56.777Z,65.15
2022-10-02T01:22:30.906Z,64.61
2022-10-02T01:25:02.413Z,64.91
2022-10-02T01:27:34.537Z,64.93
2022-10-02T01:30:09.773Z,64.80
2022-10-02T01:32:43.796Z,64.53
2022-10-02T01:35:15.121Z,64.48
2022-10-02T01:37:45.689Z,64.45
2022-10-02T01:40:32.888Z,64.40
2022-10-02T01:43:15.430Z,64.66
2022-10-02T01:46:09.852Z,64.58
2022-10-02T01:49:06.952Z,64.44
2022-10-02T01:52:02.850Z,64.92
2022-10-02T01:54:37.478Z,64.69
2022-10-02T01:57:19.951Z,64.79
2022-10-02T02:00:09.683Z,65.38
2022-10-02T02:02:53.554Z,64.83
2022-10-02T02:05:34.139Z,64.92
2022-10-02T02:08:23.897Z,65.16
2022-10-02T02:11:02.979Z,64.82
2022-10-02T02:14:07.582Z,65.37
2022-10-02T02:16:42.391Z,64.86
2022-10-02T02:19:22.908Z,65.33
2022-10-02T02:22:01.893Z,65.06
2022-10-02T02:24:37.958Z,64.97
2022-10-02T02:27:08.054Z,64.60
2022-10-02T02:29:39.757Z,64.00
2022-10-02T02:32:10.882Z,64.24
2022-10-02T02:34:45.258Z,63.99
2022-10-02T02:37:19.691Z,64.49
2022-10-02T02:39:55.502Z,64.33
2022-10-02T02:42:28.306Z,63.78
2022-10-02T02:45:02.300Z,64.19
2022-10-02T02:47:43.400Z,64.25
2022-10-02T02:50:21.679Z,64.21
2022-10-02T02:52:55.696Z,63.60
2022-10-02T02:55:30.006Z,63.91
2022-10-02T02:58:28.456Z,63.77
2022-10-02T03:00:57.260Z,63.18
2022-10-02T03:03:26.037Z,63.35
2022-10-02T03:06:05.987Z,63.29
2022-10-02T03:08:38.260Z,63.69
2022-10-02T03:11:26.106Z,63.01
2022-10-02T03:14:31.909Z,62.76
2022-10-02T03:17:30.016Z,63.33
2022-10-02T03:20:37.502Z,62.48
2022-10-02T03:23:18.962Z,62.24
2022-10-02T03:26:13.147Z,62.64
2022-10-02T03:28:58.125Z,62.46
2022-10-02T03:31:31.720Z,61.77
2022-10-02T03:34:03.031Z,61.55
2022-10-02T03:36:32.854Z,61.67
2022-10-02T03:39:24.251Z,61.54
2022-10-02T03:41:53.105Z,61.33
2022-10-02T03:44:22.269Z,61.13
2022-10-02T03:46:50.858Z,60.84
2022-10-02T03:49:19.672Z,60.35
2022-10-02T03:51:48.745Z,59.75
2022-10-02T03:54:21.035Z,59.89
2022-10-02T03:57:04.025Z,59.37
2022-10-02T04:00:01.792Z,60.04
2022-10-02T04:02:47.817Z,59.27
2022-10-02T04:05:27.835Z,59.82
2022-10-02T04:08:00.598Z,59.45
2022-10-02T04:10:49.685Z,58.59
2022-10-02T04:13:47.547Z,58.19
2022-10-02T04:16:28.532Z,58.53
2022-10-02T04:19:03.141Z,58.58
2022-10-02T04:21:43.580Z,58.46
2022-10-02T04:24:20.191Z,58.74
2022-10-02T04:27:00.180Z,58.35
2022-10-02T04:29:36.753Z,57.29
2022-10-02T04:32:40.910Z,58.16
2022-10-02T04:35:39.433Z,57.66
2022-10-02T04:38:25.551Z,57.52
2022-10-02T04:41:15.977Z,57.55
2022-10-02T04:44:15.044Z,57.54
2022-10-02T04:46:52.018Z,56.44
2022-10-02T04:49:28.028Z,56.73
2022-10-02T04:52:29.674Z,55.76
2022-10-02T04:55:07.811Z,56.74
2022-10-02T04:58:06.611Z,55.75
2022-10-02T05:00:46.621Z,55.32
2022-10-02T05:03:31.026Z,55.11
2022-10-02T05:06:23.346Z,55.62
2022-10-02T05:09:05.763Z,54.27
2022-10-02T05:12:08.605Z,54.41
2022-10-02T05:14:37.288Z,54.83
2022-10-02T05:17:20.693Z,53.84
2022-10-02T05:20:33.714Z,53.38
2022-10-02T05:23:16.268Z,54.56
2022-10-02T05:25:44.906Z,53.46
2022-10-02T05:28:16.573Z,53.85
2022-10-02T05:30:54.658Z,53.45
2022-10-02T05:33:33.817Z,52.72
2022-10-02T05:36:39.740Z,52.77
2022-10-02T05:39:17.197Z,53.16
2022-10-02T05:42:10.028Z,53.01
2022-10-02T05:44:44.102Z,53.34
2022-10-02T05:47:31.731Z,52.18
2022-10-02T05:50:30.619Z,52.92
2022-10-02T05:53:05.642Z,52.01
2022-10-02T05:55:45.735Z,52.32
2022-10-02T05:58:37.402Z,50.80
2022-10-02T06:01:09.411Z,51.44
2022-10-02T06:04:14.662Z,50.51
2022-10-02T06:06:48.900Z,50.39
2022-10-02T06:09:44.230Z,49.42
2022-10-02T06:12:29.288Z,49.60
2022-10-02T06:15:09.125Z,49.33
2022-10-02T06:18:17.967Z,48.86
2022-10-02T06:20:55.876Z,49.40
2022-10-02T06:23:32.694Z,47.71
2022-10-02T06:26:06.185Z,48.17
2022-10-02T06:28:36.957Z,48.97
2022-10-02T06:31:27.820Z,48.23
2022-10-02T06:33:56.823Z,49.26
2022-10-02T06:36:44.318Z,47.74
2022-10-02T06:39:32.038Z,49.02
2022-10-02T06:42:24.757Z,49.65
2022-10-02T06:45:05.177Z,49.42
2022-10-02T06:47:55.050Z,48.21
2022-10-02T06:50:35.703Z,48.31
2022-10-02T06:53:30.937Z,48.26
2022-10-02T06:56:14.555Z,47.41
2022-10-02T06:59:05.361Z,47.36
2022-10-02T07:01:57.184Z,47.19
2022-10-02T07:04:57.258Z,46.60
2022-10-02T07:07:40.897Z,47.67
2022-10-02T07:10:21.186Z,46.29
2022-10-02T07:13:03.664Z,47.26
2022-10-02T07:15:44.099Z,47.28
2022-10-02T07:18:36.849Z,45.91
2022-10-02T07:21:08.477Z,46.70
2022-10-02T07:24:20.642Z,45.86
2022-10-02T07:26:52.302Z,47.49
2022-10-02T07:29:42.687Z,47.16
2022-10-02T07:32:17.329Z,46.69
2022-10-02T07:35:03.837Z,45.63
2022-10-02T07:37:35.356Z,46.31
2022-10-02T07:40:32.083Z,45.12
2022-10-02T07:43:13.835Z,44.05
2022-10-02T07:46:03.453Z,45.84
2022-10-02T07:48:42.028Z,45.57
2022-10-02T07:51:48.653Z,45.53
2022-10-02T07:54:48.556Z,45.63
2022-10-02T07:57:27.086Z,44.14
2022-10-02T08:00:26.213Z,43.50
2022-10-02T08:03:09.303Z,43.96
2022-10-02T08:05:44.104Z,44.13
2022-10-02T08:08:20.090Z,44.58
2022-10-02T08:10:54.585Z,44.32
2022-10-02T08:13:37.618Z,42.92
2022-10-02T08:16:09.585Z,42.97
2022-10-02T08:19:17.473Z,40.74
2022-10-02T08:22:01.651Z,42.78
2022-10-02T08:24:39.730Z,41.63
2022-10-02T08:27:17.635Z,41.83
2022-10-02T08:29:55.214Z,43.01
2022-10-02T08:32:32.524Z,43.57
2022-10-02T08:35:14.923Z,41.75
2022-10-02T08:37:43.679Z,41.45
2022-10-02T08:40:45.412Z,40.91
2022-10-02T08:43:54.603Z,40.95
2022-10-02T08:46:35.687Z,41.03
2022-10-02T08:49:07.267Z,41.07
2022-10-02T08:51:38.563Z,41.95
2022-10-02T08:54:42.837Z,41.80
2022-10-02T08:57:42.098Z,40.50
2022-10-02T09:00:28.648Z,39.00
2022-10-02T09:03:19.746Z,40.32
2022-10-02T09:06:21.330Z,40.83
2022-10-02T09:09:20.445Z,40.65
2022-10-02T09:12:07.066Z,40.73
2022-10-02T09:14:49.120Z,39.84
2022-10-02T09:17:54.612Z,41.59
2022-10-02T09:20:29.130Z,40.50
2022-10-02T09:23:20.478Z,39.94
2022-10-02T09:26:19.355Z,40.34
2022-10-02T09:29:04.193Z,40.81
2022-10-02T09:31:59.858Z,41.25
2022-10-02T09:34:34.693Z,41.99
2022-10-02T09:37:16.793Z,41.06
2022-10-02T09:40:39.338Z,41.90
2022-10-02T09:43:44.326Z,40.68
2022-10-02T09:46:31.695Z,41.71
2022-10-02T09:49:09.737Z,41.42
2022-10-02T09:51:56.906Z,40.88
2022-10-02T09:55:01.603Z,41.92
2022-10-02T09:57:45.868Z,41.76
2022-10-02T10:00:55.515Z,41.56
2022-10-02T10:03:40.338Z,40.99
2022-10-02T10:06:12.102Z,40.58
2022-10-02T10:09:02.303Z,40.35
2022-10-02T10:11:34.265Z,40.94
2022-10-02T10:14:08.801Z,42.31
2022-10-02T10:17:14.227Z,42.15
2022-10-02T10:20:04.632Z,41.69
2022-10-02T10:22:39.618Z,41.96
2022-10-02T10:25:23.626Z,42.32
2022-10-02T10:28:07.171Z,42.16
2022-10-02T10:31:12.676Z,41.80
2022-10-02T10:34:05.306Z,41.52
2022-10-02T10:37:15.263Z,41.57
2022-10-02T10:40:22.590Z,41.38
2022-10-02T10:43:16.821Z,42.17
2022-10-02T10:46:16.379Z,42.51
2022-10-02T10:49:11.353Z,42.56
2022-10-02T10:51:49.398Z,42.58
2022-10-02T10:54:44.354Z,42.84
2022-10-02T10:57:35.788Z,42.79
2022-10-02T11:00:26.560Z,42.38
2022-10-02T11:03:29.923Z,42.92
2022-10-02T11:06:23.238Z,42.41
2022-10-02T11:09:23.437Z,42.13
2022-10-02T11:12:13.937Z,42.81
2022-10-02T11:15:13.659Z,43.14
2022-10-02T11:17:49.088Z,42.56
2022-10-02T11:20:45.427Z,42.52
2022-10-02T11:23:31.599Z,43.59
2022-10-02T11:26:06.839Z,43.80
2022-10-02T11:28:45.489Z,44.12
2022-10-02T11:31:41.474Z,44.28
2022-10-02T11:34:48.270Z,44.75
2022-10-02T11:37:44.478Z,43.31
2022-10-02T11:40:42.817Z,44.53
2022-10-02T11:43:14.445Z,44.59
2022-10-02T11:46:10.735Z,44.72
2022-10-02T11:49:08.202Z,45.02
2022-10-02T11:52:08.104Z,45.34
2022-10-02T11:54:45.656Z,45.22
2022-10-02T11:57:25.214Z,46.20
2022-10-02T12:00:06.490Z,46.32
2022-10-02T12:03:02.463Z,46.70
2022-10-02T12:06:00.809Z,46.85
2022-10-02T12:08:50.790Z,47.30
2022-10-02T12:11:33.378Z,48.45
2022-10-02T12:14:26.310Z,48.31
2022-10-02T12:17:19.419Z,48.31
2022-10-02T12:20:31.190Z,49.50
2022-10-02T12:23:27.150Z,49.84
2022-10-02T12:26:36.311Z,50.45
2022-10-02T12:29:32.770Z,50.94
2022-10-02T12:32:26.842Z,50.79
2022-10-02T12:35:07.809Z,50.95
2022-10-02T12:37:57.607Z,51.46
2022-10-02T12:40:34.918Z,53.00
2022-10-02T12:43:24.638Z,51.87
2022-10-02T12:46:06.894Z,52.86
2022-10-02T12:48:56.411Z,52.80
2022-10-02T12:51:40.760Z,53.79
2022-10-02T12:54:38.008Z,54.31
2022-10-02T12:57:43.649Z,54.59
2022-10-02T13:00:20.018Z,54.68
2022-10-02T13:03:15.356Z,55.75
2022-10-02T13:06:28.028Z,56.86
2022-10-02T13:09:35.965Z,57.45
2022-10-02T13:12:35.647Z,58.06
2022-10-02T13:15:30.813Z,58.55
2022-10-02T13:18:27.748Z,58.63
2022-10-02T13:21:22.309Z,58.38
2022-10-02T13:23:59.050Z,58.87
2022-10-02T13:26:38.902Z,59.24
2022-10-02T13:29:45.437Z,58.94
2022-10-02T13:32:34.100Z,59.39
2022-10-02T13:35:20.978Z,59.05
2022-10-02T13:38:21.008Z,59.13
2022-10-02T13:41:38.136Z,59.53
2022-10-02T13:44:26.857Z,59.08
2022-10-02T13:47:06.986Z,58.06
2022-10-02T13:49:41.129Z,58.23
2022-10-02T13:52:34.790Z,58.66
2022-10-02T13:55:29.888Z,59.62
2022-10-02T13:58:30.450Z,59.99
2022-10-02T14:01:12.843Z,60.20
2022-10-02T14:04:11.449Z,60.70
2022-10-02T14:06:45.589Z,60.58
2022-10-02T14:09:49.448Z,61.21
2022-10-02T14:13:01.112Z,61.34
2022-10-02T14:15:41.490Z,61.46
2022-10-02T14:18:41.128Z,61.79
2022-10-02T14:21:31.872Z,62.01
2022-10-02T14:24:23.718Z,62.08
2022-10-02T14:27:12.370Z,61.95
2022-10-02T14:29:48.912Z,61.84
2022-10-02T14:32:17.410Z,62.27
2022-10-02T14:35:20.129Z,63.09
2022-10-02T14:38:06.368Z,62.93
2022-10-02T14:41:00.517Z,62.95
2022-10-02T14:43:49.919Z,63.69
2022-10-02T14:47:04.936Z,64.02
2022-10-02T14:49:42.690Z,64.12
2022-10-02T14:52:28.069Z,65.04
2022-10-02T14:55:16.551Z,65.67
2022-10-02T14:58:06.810Z,65.60
2022-10-02T15:00:39.200Z,65.00
2022-10-02T15:03:18.854Z,65.10
2022-10-02T15:06:30.390Z,64.80
2022-10-02T15:09:12.291Z,65.04
2022-10-02T15:12:07.232Z,65.09
2022-10-02T15:15:07.550Z,65.05
2022-10-02T15:17:56.671Z,65.34
2022-10-02T15:20:28.579Z,65.46
2022-10-02T15:23:01.438Z,65.36
2022-10-02T15:25:36.168Z,65.97
2022-10-02T15:28:35.689Z,65.58
2022-10-02T15:31:23.659Z,65.78
2022-10-02T15:33:56.529Z,66.36
2022-10-02T15:36:55.511Z,67.11
2022-10-02T15:39:47.889Z,66.94
2022-10-02T15:42:30.997Z,66.35
2022-10-02T15:45:22.791Z,67.24
2022-10-02T15:48:03.170Z,67.35
2022-10-02T15:50:46.894Z,67.65
2022-10-02T15:53:26.916Z,67.00
2022-10-02T15:56:32.997Z,67.89
2022-10-02T15:59:01.547Z,67.51
2022-10-02T16:02:07.465Z,67.31
2022-10-02T16:04:59.213Z,67.16
2022-10-02T16:08:07.322Z,66.84
2022-10-02T16:11:08.569Z,67.24
2022-10-02T16:14:03.451Z,66.89
2022-10-02T16:16:41.008Z,67.58
2022-10-02T16:19:31.330Z,67.37
2022-10-02T16:22:25.062Z,68.08
2022-10-02T16:25:02.958Z,67.53
2022-10-02T16:27:52.803Z,67.88
2022-10-02T16:30:27.169Z,67.88
2022-10-02T16:33:44.950Z,68.47
2022-10-02T16:36:53.623Z,68.08
2022-10-02T16:39:37.333Z,68.27
2022-10-02T16:42:32.897Z,68.89
2022-10-02T16:45:13.894Z,68.72
2022-10-02T16:48:09.879Z,68.97
2022-10-02T16:51:27.670Z,68.23
2022-10-02T16:54:24.738Z,67.77
2022-10-02T16:56:57.128Z,68.23
2022-10-02T16:59:32.041Z,68.76
2022-10-02T17:02:17.519Z,68.54
2022-10-02T17:04:46.491Z,68.48
2022-10-02T17:07:44.272Z,68.65
2022-10-02T17:10:26.017Z,68.19
2022-10-02T17:13:07.834Z,68.56
2022-10-02T17:16:07.701Z,69.06
2022-10-02T17:18:51.219Z,68.72
2022-10-02T17:21:47.363Z,68.92
2022-10-02T17:24:41.752Z,68.81
2022-10-02T17:27:15.749Z,69.19
2022-10-02T17:30:05.824Z,68.97
2022-10-02T17:32:38.481Z,69.04
2022-10-02T17:35:19.357Z,69.74
2022-10-02T17:38:12.741Z,69.27
2022-10-02T17:40:48.029Z,68.57
2022-10-02T17:43:51.456Z,69.39
2022-10-02T17:46:20.008Z,69.58
2022-10-02T17:48:57.529Z,69.69
2022-10-02T17:52:20.430Z,69.51
2022-10-02T17:55:34.071Z,69.11
2022-10-02T17:58:28.622Z,69.24
2022-10-02T18:01:20.732Z,68.99
2022-10-02T18:04:14.441Z,69.82
2022-10-02T18:07:01.103Z,69.02
2022-10-02T18:10:31.742Z,69.34
2022-10-02T18:13:26.870Z,69.63
2022-10-02T18:16:06.008Z,68.84
2022-10-02T18:18:51.717Z,69.33
2022-10-02T18:21:47.564Z,69.01
2022-10-02T18:24:42.681Z,68.94
2022-10-02T18:27:48.367Z,69.68
2022-10-02T18:30:19.850Z,68.62
2022-10-02T18:33:27.689Z,69.65
2022-10-02T18:36:13.390Z,69.36
2022-10-02T18:39:02.437Z,69.66
2022-10-02T18:42:02.279Z,69.12
2022-10-02T18:45:04.732Z,69.55
2022-10-02T18:47:44.278Z,69.42
2022-10-02T18:50:35.531Z,69.01
2022-10-02T18:53:39.048Z,69.38
2022-10-02T18:56:14.350Z,69.18
2022-10-02T18:59:19.321Z,69.90
2022-10-02T19:02:06.267Z,69.62
2022-10-02T19:04:53.070Z,69.20
2022-10-02T19:07:44.600Z,69.29
2022-10-02T19:10:31.602Z,69.65
2022-10-02T19:13:17.965Z,69.57
2022-10-02T19:15:49.628Z,70.02
2022-10-02T19:18:30.046Z,70.12
2022-10-02T19:21:14.959Z,70.19
2022-10-02T19:23:57.204Z,70.24
2022-10-02T19:26:29.732Z,70.37
2022-10-02T19:29:06.445Z,70.12
2022-10-02T19:31:40.103Z,70.33
2022-10-02T19:34:42.857Z,70.85
2022-10-02T19:37:17.011Z,70.23
2022-10-02T19:39:54.838Z,70.89
2022-10-02T19:42:28.852Z,70.77
2022-10-02T19:45:06.177Z,70.14
2022-10-02T19:47:43.728Z,70.63
2022-10-02T19:50:48.548Z,70.57
2022-10-02T19:53:31.131Z,70.91
2022-10-02T19:56:24.989Z,70.64
2022-10-02T19:59:08.788Z,70.75
2022-10-02T20:01:44.512Z,70.73
2022-10-02T20:04:19.808Z,71.12
2022-10-02T20:06:53.787Z,70.80
2022-10-02T20:09:40.302Z,71.19
2022-10-02T20:12:25.726Z,71.15
2022-10-02T20:15:09.702Z,70.74
2022-10-02T20:17:39.779Z,71.05
2022-10-02T20:20:17.364Z,71.19
2022-10-02T20:22:54.492Z,70.71
2022-10-02T20:25:47.025Z,71.22
2022-10-02T20:28:52.976Z,70.63
2022-10-02T20:31:41.540Z,70.96
2022-10-02T20:34:40.467Z,71.44
2022-10-02T20:37:23.323Z,70.94
2022-10-02T20:40:16.204Z,70.99
2022-10-02T20:43:16.217Z,71.06
2022-10-02T20:46:05.844Z,70.45
2022-10-02T20:49:03.536Z,70.95
2022-10-02T20:51:45.622Z,71.02
2022-10-02T20:54:43.510Z,71.16
2022-10-02T20:57:27.186Z,70.88
2022-10-02T21:00:16.119Z,70.93
2022-10-02T21:03:26.879Z,71.00
2022-10-02T21:06:22.755Z,71.17
2022-10-02T21:09:27.625Z,71.17
2022-10-02T21:12:21.123Z,71.13
2022-10-02T21:15:04.719Z,70.94
2022-10-02T21:18:02.067Z,71.17
2022-10-02T21:20:56.969Z,71.40
2022-10-02T21:23:45.584Z,71.77
2022-10-02T21:26:34.817Z,71.43
2022-10-02T21:29:19.116Z,71.21
2022-10-02T21:31:59.202Z,71.43
2022-10-02T21:34:46.582Z,71.63
2022-10-02T21:37:46.178Z,71.08
2022-10-02T21:40:43.188Z,71.69
2022-10-02T21:43:30.708Z,71.14
2022-10-02T21:46:33.457Z,71.40
2022-10-02T21:49:35.489Z,71.52
2022-10-02T21:52:34.197Z,71.26
2022-10-02T21:55:36.143Z,71.41
2022-10-02T21:58:35.688Z,71.31
2022-10-02T22:01:22.463Z,70.97
2022-10-02T22:04:29.207Z,71.79
2022-10-02T22:07:20.283Z,71.61
2022-10-02T22:10:09.967Z,71.73
2022-10-02T22:13:03.667Z,71.45
2022-10-02T22:15:52.523Z,71.35
2022-10-02T22:18:46.241Z,71.53
2022-10-02T22:21:27.174Z,71.08
2022-10-02T22:24:14.414Z,71.25
2022-10-02T22:26:55.580Z,71.63
2022-10-02T22:29:44.611Z,71.40
2022-10-02T22:32:46.783Z,71.25
2022-10-02T22:35:45.791Z,71.60
2022-10-02T22:38:29.008Z,71.75
2022-10-02T22:41:18.670Z,71.55
2022-10-02T22:43:53.654Z,71.22
2022-10-02T22:46:48.886Z,71.83
2022-10-02T22:49:30.474Z,71.55
2022-10-02T22:52:10.470Z,71.61
2022-10-02T22:54:43.311Z,71.10
2022-10-02T22:57:21.020Z,71.30
2022-10-02T22:59:58.556Z,71.89
2022-10-02T23:02:35.511Z,71.42
2022-10-02T23:05:31.861Z,72.17
2022-10-02T23:08:19.265Z,72.17
2022-10-02T23:10:54.393Z,72.03
2022-10-02T23:13:27.482Z,71.82
2022-10-02T23:16:06.733Z,72.24
2022-10-02T23:18:43.512Z,71.76
2022-10-02T23:21:29.395Z,72.28
2022-10-02T23:24:13.516Z,72.13
2022-10-02T23:26:50.254Z,72.40
2022-10-02T23:29:55.138Z,72.11
2022-10-02T23:32:55.947Z,72.26
2022-10-02T23:35:27.642Z,71.97
2022-10-02T23:38:16.747Z,72.35
2022-10-02T23:41:18.978Z,72.21
2022-10-02T23:44:06.451Z,72.34
2022-10-02T23:46:58.586Z,72.38
2022-10-02T23:49:47.319Z,72.44
2022-10-02T23:52:43.368Z,72.32
2022-10-02T23:55:57.884Z,72.31
2022-10-02T23:58:44.817Z,71.55
